Time;durP1;ratioP1;P1;durP2;ratioP2;P2;SDS_P1;SDS_P2;PMS_P1;PMS_P2;Temp;Humidity;BMP_temperature;BMP_pressure;BME280_temperature;BME280_humidity;BME280_pressure;Samples;Min_cycle;Max_cycle;Signal;HPM_P1;HPM_P2
2023/10/02 00:00:07;;;;;;;23.38;11.73;;;;;;;16.48;100.00;101411.78;5087716;28;20052;-81
2023/10/02 00:02:52;;;;;;;23.27;11.43;;;;;;;16.53;100.00;101427.94;5086098;28;20108;-83
2023/10/02 00:05:50;;;;;;;25.58;12.30;;;;;;;16.37;100.00;101401.63;5097361;28;20058;-80
2023/10/02 00:08:57;;;;;;;22.33;12.63;;;;;;;16.44;100.00;101415.78;5092650;28;20055;-83
2023/10/02 00:11:45;;;;;;;21.23;12.18;;;;;;;16.37;100.00;101420.09;5093507;28;20052;-84
2023/10/02 00:14:34;;;;;;;20.70;11.75;;;;;;;16.29;100.00;101402.50;5080289;28;20040;-84
2023/10/02 00:17:22;;;;;;;20.83;11.18;;;;;;;16.34;100.00;101431.84;5091135;28;20048;-83
2023/10/02 00:20:26;;;;;;;21.67;12.15;;;;;;;16.28;100.00;101424.63;5090197;28;20058;-82
2023/10/02 00:22:53;;;;;;;22.98;11.35;;;;;;;16.24;100.00;101408.28;5055475;28;20055;-81
2023/10/02 00:25:22;;;;;;;26.55;12.20;;;;;;;16.33;100.00;101416.16;5085327;28;20104;-79
2023/10/02 00:27:51;;;;;;;22.20;11.82;;;;;;;16.36;100.00;101418.47;5084696;28;20128;-82
2023/10/02 00:30:23;;;;;;;22.23;12.27;;;;;;;16.13;100.00;101416.59;5090987;28;20498;-82
2023/10/02 00:32:51;;;;;;;21.25;12.55;;;;;;;16.18;100.00;101431.94;5085087;28;20059;-82
2023/10/02 00:35:22;;;;;;;25.92;12.10;;;;;;;16.06;100.00;101425.41;5083708;28;20052;-82
2023/10/02 00:37:51;;;;;;;20.90;11.93;;;;;;;16.08;100.00;101423.38;5074904;28;20053;-82
2023/10/02 00:40:30;;;;;;;22.75;12.85;;;;;;;15.91;100.00;101412.94;5070952;28;20091;-82
2023/10/02 00:42:59;;;;;;;22.40;12.95;;;;;;;16.02;100.00;101435.50;5095019;28;20112;-82
2023/10/02 00:45:29;;;;;;;22.50;12.82;;;;;;;15.97;100.00;101414.06;5100287;28;20440;-81
2023/10/02 00:48:25;;;;;;;24.48;12.57;;;;;;;15.87;100.00;101422.19;5092125;28;20502;-83
2023/10/02 00:50:54;;;;;;;20.92;11.85;;;;;;;15.93;100.00;101429.41;5084933;28;20486;-82
2023/10/02 00:53:37;;;;;;;21.90;12.68;;;;;;;15.98;100.00;101434.19;5078787;28;20048;-82
2023/10/02 00:56:19;;;;;;;21.13;12.57;;;;;;;15.84;100.00;101413.78;5090118;28;20078;-82
2023/10/02 00:58:58;;;;;;;24.05;12.10;;;;;;;15.80;100.00;101425.66;5086219;28;20057;-82
2023/10/02 01:01:29;;;;;;;22.45;11.85;;;;;;;15.78;100.00;101414.47;5094000;28;20049;-84
2023/10/02 01:04:24;;;;;;;22.27;12.32;;;;;;;15.75;100.00;101423.53;5092221;28;20233;-82
2023/10/02 01:13:01;;;;;;;27.17;13.57;;;;;;;15.59;100.00;101432.34;5065818;28;20063;-82
2023/10/02 01:15:30;;;;;;;22.42;12.57;;;;;;;15.50;100.00;101424.59;5083592;28;20087;-83
2023/10/02 01:20:53;;;;;;;23.00;12.75;;;;;;;15.41;100.00;101426.41;5073270;28;20060;-82
2023/10/02 01:23:30;;;;;;;20.50;12.05;;;;;;;15.57;100.00;101434.34;5064246;28;20140;-79
2023/10/02 01:26:01;;;;;;;19.92;11.57;;;;;;;15.56;100.00;101434.47;5089082;28;20046;-80
2023/10/02 01:28:49;;;;;;;27.50;13.32;;;;;;;15.36;100.00;101415.53;5080394;28;20498;-81
2023/10/02 01:33:57;;;;;;;26.85;13.40;;;;;;;15.47;100.00;101419.66;5078942;28;20067;-82
2023/10/02 01:36:28;;;;;;;23.90;12.82;;;;;;;15.29;100.00;101393.47;5079401;28;20068;-82
2023/10/02 01:38:59;;;;;;;24.45;12.60;;;;;;;15.36;100.00;101418.19;5081584;28;20059;-79
2023/10/02 01:41:33;;;;;;;29.08;12.82;;;;;;;15.45;100.00;101434.81;5090390;28;20059;-81
2023/10/02 01:44:00;;;;;;;22.90;12.60;;;;;;;15.33;100.00;101439.63;5091191;28;20097;-81
2023/10/02 01:46:29;;;;;;;22.55;12.52;;;;;;;15.23;100.00;101429.25;5091314;28;20051;-80
2023/10/02 01:48:55;;;;;;;23.08;12.43;;;;;;;15.28;100.00;101449.84;5091984;28;20048;-80
2023/10/02 01:51:26;;;;;;;22.25;12.52;;;;;;;15.27;100.00;101442.91;5088529;28;20365;-86
2023/10/02 01:54:02;;;;;;;23.42;13.10;;;;;;;15.26;100.00;101441.25;5082398;28;20048;-81
2023/10/02 01:56:35;;;;;;;25.38;12.68;;;;;;;15.17;100.00;101427.25;5086468;28;20053;-84
2023/10/02 01:59:10;;;;;;;22.13;13.02;;;;;;;15.29;100.00;101430.38;5088440;28;20047;-82
2023/10/02 02:01:51;;;;;;;22.20;12.30;;;;;;;15.19;100.00;101430.56;5098297;28;20063;-82
2023/10/02 02:04:27;;;;;;;19.45;12.10;;;;;;;15.23;100.00;101425.78;5092099;28;20063;-82
2023/10/02 02:06:56;;;;;;;22.00;12.93;;;;;;;15.24;100.00;101432.69;5102904;28;20127;-83
2023/10/02 02:09:25;;;;;;;24.58;13.00;;;;;;;15.24;100.00;101420.34;5098638;28;20071;-82
2023/10/02 02:12:06;;;;;;;24.33;13.63;;;;;;;15.16;100.00;101425.63;5082412;28;20068;-82
2023/10/02 02:14:33;;;;;;;24.30;13.73;;;;;;;15.06;100.00;101418.91;5092655;28;20048;-83
2023/10/02 02:17:05;;;;;;;25.92;13.98;;;;;;;15.06;100.00;101408.34;5086460;28;20048;-80
2023/10/02 02:19:35;;;;;;;22.55;13.00;;;;;;;15.10;100.00;101414.94;5081188;28;20048;-82
2023/10/02 02:22:12;;;;;;;22.85;13.25;;;;;;;15.15;100.00;101423.16;5095947;28;20055;-83
2023/10/02 02:24:42;;;;;;;24.05;13.20;;;;;;;15.13;100.00;101423.31;5080791;28;20083;-84
2023/10/02 02:27:11;;;;;;;23.48;13.60;;;;;;;15.02;100.00;101407.88;5085624;28;20055;-82
2023/10/02 02:29:38;;;;;;;24.00;13.82;;;;;;;15.16;100.00;101430.06;5100434;28;20105;-83
2023/10/02 02:32:19;;;;;;;25.00;13.68;;;;;;;15.14;100.00;101400.41;5092692;28;20056;-81
2023/10/02 02:35:00;;;;;;;28.73;14.35;;;;;;;15.17;100.00;101408.00;5072948;28;20045;-82
2023/10/02 02:37:33;;;;;;;23.95;13.65;;;;;;;15.15;100.00;101417.88;5083713;28;20072;-81
2023/10/02 02:42:54;;;;;;;22.38;13.13;;;;;;;15.17;100.00;101415.91;5084946;28;20056;-84
2023/10/02 02:45:36;;;;;;;24.02;13.70;;;;;;;15.03;100.00;101398.16;5082895;28;20064;-83
2023/10/02 02:48:10;;;;;;;23.25;13.82;;;;;;;14.98;100.00;101403.91;5081146;28;20051;-82
2023/10/02 02:50:40;;;;;;;24.30;14.05;;;;;;;15.00;100.00;101406.38;5080645;28;20053;-81
2023/10/02 02:53:23;;;;;;;22.40;13.23;;;;;;;14.96;100.00;101418.25;5081062;28;20044;-83
2023/10/02 02:56:18;;;;;;;23.52;13.45;;;;;;;14.91;100.00;101403.75;5081599;28;20059;-81
2023/10/02 02:58:52;;;;;;;24.73;13.55;;;;;;;14.92;100.00;101401.94;5080623;28;20075;-82
2023/10/02 03:01:30;;;;;;;25.00;13.45;;;;;;;14.78;100.00;101403.41;5080745;28;20098;-82
2023/10/02 03:03:56;;;;;;;23.95;13.70;;;;;;;14.87;100.00;101418.22;5078631;28;20052;-81
2023/10/02 03:06:28;;;;;;;23.00;12.55;;;;;;;14.77;100.00;101388.59;5078805;28;20060;-82
2023/10/02 03:08:58;;;;;;;24.10;13.05;;;;;;;14.91;100.00;101411.66;5077744;28;20041;-80
2023/10/02 03:11:44;;;;;;;23.38;13.45;;;;;;;14.80;100.00;101408.50;5080449;28;20055;-83
2023/10/02 03:14:31;;;;;;;23.63;12.93;;;;;;;14.82;100.00;101412.63;5087315;28;20129;-83
2023/10/02 03:17:22;;;;;;;22.10;13.27;;;;;;;14.73;100.00;101403.06;5090839;28;20110;-81
2023/10/02 03:20:32;;;;;;;22.52;13.30;;;;;;;14.63;100.00;101407.72;5082341;28;20048;-81
2023/10/02 03:25:45;;;;;;;23.45;12.52;;;;;;;14.56;100.00;101419.88;5078657;28;20056;-80
2023/10/02 03:28:32;;;;;;;26.92;13.95;;;;;;;14.42;100.00;101383.63;5076684;28;20446;-79
2023/10/02 03:32:11;;;;;;;24.10;13.93;;;;;;;14.55;100.00;101411.16;5075403;28;20447;-80
2023/10/02 03:35:02;;;;;;;25.15;13.60;;;;;;;14.46;100.00;101412.13;5077075;28;20051;-80
2023/10/02 03:37:38;;;;;;;25.70;15.52;;;;;;;14.37;100.00;101401.69;5078507;28;20068;-81
2023/10/02 03:44:26;;;;;;;;;;;;;;;;;;;;;
2023/10/02 03:46:59;;;;;;;27.42;14.57;;;;;;;14.38;100.00;101393.63;5059646;28;20041;-79
2023/10/02 03:49:49;;;;;;;;;;;;;;;14.56;100.00;101414.59;5079336;28;20055;-78
2023/10/02 03:52:17;;;;;;;26.67;14.40;;;;;;;14.32;100.00;101389.00;5078681;28;19920;-78
2023/10/02 03:54:45;;;;;;;29.58;15.65;;;;;;;14.44;100.00;101403.56;5083677;28;20117;-80
2023/10/02 03:57:37;;;;;;;30.60;15.65;;;;;;;14.39;100.00;101394.47;5076152;28;20068;-80
2023/10/02 04:07:30;;;;;;;28.92;16.75;;;;;;;14.17;100.00;101369.59;5060683;28;20044;-79
2023/10/02 04:19:34;;;;;;;26.63;16.42;;;;;;;14.26;100.00;101385.22;5030329;28;20057;-80
2023/10/02 04:21:59;;;;;;;32.35;16.88;;;;;;;14.14;100.00;101376.00;5075462;28;20147;-79
2023/10/02 04:24:51;;;;;;;31.17;17.98;;;;;;;14.13;100.00;101363.84;5070016;28;20056;-80
2023/10/02 04:34:24;;;;;;;32.95;17.75;;;;;;;14.21;100.00;101376.97;5058360;28;20064;-82
2023/10/02 04:43:57;;;;;;;29.60;16.77;;;;;;;14.08;100.00;101376.63;4984460;28;20058;-78
2023/10/02 04:47:05;;;;;;;;;;;;;;;;;;;;;
2023/10/02 04:53:19;;;;;;;27.00;14.90;;;;;;;14.16;100.00;101392.47;5068997;28;20510;-83
2023/10/02 04:56:19;;;;;;;24.30;14.77;;;;;;;14.08;100.00;101371.38;5067705;28;20406;-79
2023/10/02 04:59:13;;;;;;;29.27;15.27;;;;;;;14.02;100.00;101365.94;5085077;28;20135;-80
2023/10/02 05:05:34;;;;;;;27.73;14.82;;;;;;;13.92;100.00;101360.81;5100845;22;20045;-80
2023/10/02 05:08:30;;;;;;;24.80;14.35;;;;;;;14.08;100.00;101387.16;5072459;28;20135;-79
2023/10/02 05:15:08;;;;;;;26.23;14.63;;;;;;;14.07;100.00;101385.53;5063883;28;20522;-80
2023/10/02 05:20:38;;;;;;;29.83;13.68;;;;;;;13.96;100.00;101364.75;5168339;22;20497;-78
2023/10/02 05:23:05;;;;;;;24.05;14.25;;;;;;;14.04;100.00;101375.31;5095520;28;20070;-81
2023/10/02 05:25:41;;;;;;;26.92;14.52;;;;;;;13.90;100.00;101370.66;5100936;28;20056;-81
2023/10/02 05:28:07;;;;;;;24.73;13.95;;;;;;;13.88;100.00;101377.88;5095818;28;20210;-81
2023/10/02 05:30:43;;;;;;;22.77;13.57;;;;;;;14.06;100.00;101394.41;5071923;28;20045;-80
2023/10/02 05:33:16;;;;;;;28.20;14.35;;;;;;;13.88;100.00;101389.22;5081414;28;20056;-81
2023/10/02 09:04:51;;;;;;;22.00;12.48;;;;;;;20.85;82.44;101290.72;4960669;28;20061;-85
2023/10/02 09:10:58;;;;;;;23.05;12.35;;;;;;;20.67;83.07;101319.78;5034602;22;20060;-81
2023/10/02 09:13:24;;;;;;;21.90;12.20;;;;;;;20.88;83.25;101316.91;5092492;28;20089;-81
2023/10/02 09:15:53;;;;;;;25.52;12.40;;;;;;;21.08;82.11;101317.69;5092423;28;20044;-82
2023/10/02 09:18:33;;;;;;;23.67;12.18;;;;;;;21.24;81.93;101313.78;5096761;28;20086;-79
2023/10/02 09:21:13;;;;;;;25.55;12.68;;;;;;;21.07;81.90;101307.25;5076114;28;20328;-81
2023/10/02 09:23:49;;;;;;;23.40;12.82;;;;;;;21.48;82.02;101323.72;5087548;28;20503;-81
2023/10/02 09:26:23;;;;;;;24.42;13.43;;;;;;;21.88;80.45;101306.72;5075038;28;20102;-79
2023/10/02 09:28:58;;;;;;;20.90;12.60;;;;;;;22.20;78.85;101289.75;5078195;28;20049;-81
2023/10/02 09:31:26;;;;;;;22.75;12.55;;;;;;;22.36;78.08;101293.72;5079697;28;20056;-80
2023/10/02 09:33:53;;;;;;;21.85;12.15;;;;;;;22.20;78.67;101284.41;5079005;28;20071;-83
2023/10/02 09:36:34;;;;;;;24.73;12.75;;;;;;;22.21;77.44;101272.72;5093896;28;20079;-80
2023/10/02 09:39:31;;;;;;;23.17;12.45;;;;;;;22.44;77.29;101272.09;5084511;28;20041;-80
2023/10/02 09:41:54;;;;;;;25.90;13.80;;;;;;;22.22;76.73;101270.84;5083928;28;20059;-81
2023/10/02 09:44:27;;;;;;;22.63;12.93;;;;;;;22.26;76.46;101266.72;5090820;28;20132;-83
2023/10/02 09:46:53;;;;;;;24.02;13.38;;;;;;;22.16;77.56;101277.88;5085843;28;20053;-79
2023/10/02 09:49:30;;;;;;;22.02;12.93;;;;;;;22.59;77.11;101271.78;5086535;28;20052;-79
2023/10/02 09:52:15;;;;;;;28.60;12.90;;;;;;;22.82;75.80;101267.44;5084842;28;20055;-83
2023/10/02 09:54:51;;;;;;;26.20;13.80;;;;;;;22.67;75.94;101260.81;5065774;28;20087;-78
2023/10/02 09:57:25;;;;;;;23.77;13.85;;;;;;;22.55;76.40;101266.06;5091601;28;20040;-81
2023/10/02 09:59:54;;;;;;;23.45;12.95;;;;;;;22.60;76.14;101260.88;5086297;28;20052;-81
2023/10/02 10:10:48;;;;;;;25.70;12.68;;;;;;;22.61;76.01;101243.84;5080814;28;20082;-80
2023/10/02 10:13:32;;;;;;;26.55;14.10;;;;;;;23.04;75.72;101243.00;5081011;28;20506;-82
2023/10/02 10:16:38;;;;;;;23.63;12.70;;;;;;;23.03;74.18;101225.34;5087655;28;20434;-81
2023/10/02 10:19:32;;;;;;;24.48;13.35;;;;;;;23.19;74.34;101232.72;5082632;28;20097;-80
2023/10/02 10:22:00;;;;;;;27.05;13.73;;;;;;;23.17;74.27;101218.78;5088146;28;20474;-81
2023/10/02 10:24:56;;;;;;;21.30;12.88;;;;;;;23.64;73.80;101213.66;5101929;28;20071;-78
2023/10/02 10:27:58;;;;;;;26.65;12.40;;;;;;;23.91;73.31;101214.91;5091235;28;20044;-81
2023/10/02 10:30:44;;;;;;;22.50;12.48;;;;;;;23.77;73.43;101200.09;5083453;28;20083;-81
2023/10/02 10:33:36;;;;;;;23.55;12.98;;;;;;;24.15;72.32;101211.19;5097037;28;20051;-82
2023/10/02 10:36:13;;;;;;;26.25;13.20;;;;;;;24.39;71.62;101205.91;5093776;28;20052;-81
2023/10/02 10:38:41;;;;;;;22.45;12.98;;;;;;;24.16;70.44;101198.66;5073105;28;20040;-80
2023/10/02 10:41:14;;;;;;;25.08;13.63;;;;;;;24.31;70.88;101206.25;5077910;28;20044;-79
2023/10/02 10:43:55;;;;;;;25.73;12.90;;;;;;;23.91;72.27;101222.94;5077319;28;20050;-79
2023/10/02 10:46:27;;;;;;;23.60;12.80;;;;;;;23.70;71.48;101199.41;5052850;28;20040;-81
2023/10/02 10:48:59;;;;;;;23.70;13.23;;;;;;;24.10;71.14;101192.34;5097427;28;20052;-80
2023/10/02 10:51:30;;;;;;;23.85;13.30;;;;;;;24.04;71.44;101201.34;5093672;28;20344;-80
2023/10/02 10:54:12;;;;;;;22.87;13.07;;;;;;;24.24;70.64;101200.97;5096390;28;20048;-81
2023/10/02 10:56:43;;;;;;;25.10;13.30;;;;;;;24.55;70.47;101213.22;5077533;28;20055;-81
2023/10/02 10:59:12;;;;;;;24.70;12.93;;;;;;;24.64;69.22;101206.44;5092762;28;20672;-83
2023/10/02 11:01:48;;;;;;;26.08;14.23;;;;;;;24.62;69.21;101208.53;5088093;28;20052;-81
2023/10/02 11:04:26;;;;;;;24.73;13.20;;;;;;;25.01;69.02;101211.53;5096286;28;20421;-81
2023/10/02 11:06:53;;;;;;;24.92;12.70;;;;;;;25.24;68.69;101211.44;5075217;28;20055;-79
2023/10/02 11:09:20;;;;;;;22.95;13.85;;;;;;;24.56;67.28;101206.81;5078337;28;20127;-80
2023/10/02 11:11:49;;;;;;;26.35;13.40;;;;;;;24.83;67.75;101200.94;5076316;28;20116;-80
2023/10/02 11:14:21;;;;;;;23.23;13.25;;;;;;;25.01;67.63;101195.47;5067329;28;20044;-82
2023/10/02 11:16:54;;;;;;;25.17;13.35;;;;;;;24.76;67.28;101199.22;5071462;28;20048;-80
2023/10/02 11:19:34;;;;;;;;;;;;;;;25.05;67.89;101212.66;5071412;28;20053;-81
2023/10/02 11:22:18;;;;;;;25.80;13.88;;;;;;;24.90;66.23;101182.91;5087588;28;19943;-81
2023/10/02 11:24:48;;;;;;;26.85;13.60;;;;;;;24.89;66.38;101187.44;5068685;28;20057;-80
2023/10/02 11:27:16;;;;;;;22.13;13.18;;;;;;;25.02;66.23;101175.69;5068212;28;20076;-80
2023/10/02 11:29:45;;;;;;;24.85;12.32;;;;;;;25.12;66.97;101176.66;5086331;28;20105;-80
2023/10/02 11:32:21;;;;;;;23.25;13.65;;;;;;;25.54;67.17;101172.84;5095329;28;20068;-80
2023/10/02 11:34:48;;;;;;;23.67;13.40;;;;;;;25.74;66.65;101171.38;5067302;28;20067;-83
2023/10/02 11:37:16;;;;;;;23.70;12.35;;;;;;;25.95;65.55;101169.81;5080418;28;20054;-80
2023/10/02 11:39:43;;;;;;;21.58;12.27;;;;;;;26.03;64.72;101161.34;5070721;28;20076;-82
2023/10/02 11:42:10;;;;;;;21.50;12.57;;;;;;;26.09;65.21;101168.41;5078904;28;20054;-82
2023/10/02 11:44:39;;;;;;;21.27;12.75;;;;;;;25.51;65.91;101162.63;5093579;28;20044;-81
2023/10/02 11:47:09;;;;;;;21.52;12.70;;;;;;;25.51;65.46;101158.09;5071265;28;20052;-81
2023/10/02 11:49:42;;;;;;;24.67;12.95;;;;;;;25.53;64.94;101144.44;5099394;28;20048;-81
2023/10/02 11:52:09;;;;;;;27.02;12.35;;;;;;;25.72;64.65;101153.91;5081027;28;20044;-77
2023/10/02 11:54:39;;;;;;;23.80;13.05;;;;;;;26.09;64.80;101152.31;5080906;28;20074;-79
2023/10/02 11:57:09;;;;;;;22.38;12.82;;;;;;;26.17;63.43;101142.25;5094277;28;20046;-80
2023/10/02 11:59:37;;;;;;;24.25;13.52;;;;;;;26.04;63.42;101141.50;5089615;28;20098;-81
2023/10/02 12:02:04;;;;;;;24.23;13.73;;;;;;;26.05;63.05;101145.00;5079314;28;20131;-80
2023/10/02 12:04:32;;;;;;;19.90;12.68;;;;;;;26.04;63.24;101140.72;5084268;28;20051;-80
2023/10/02 12:07:02;;;;;;;21.55;13.60;;;;;;;25.81;64.48;101149.75;5085375;28;20371;-78
2023/10/02 12:09:29;;;;;;;21.17;12.27;;;;;;;26.03;64.93;101152.50;5070778;28;20044;-80
2023/10/02 12:11:57;;;;;;;27.95;12.63;;;;;;;25.80;64.44;101142.78;5073496;28;20044;-80
2023/10/02 12:14:25;;;;;;;26.10;13.30;;;;;;;26.16;64.13;101132.56;5086736;28;20421;-81
2023/10/02 12:16:52;;;;;;;20.83;12.25;;;;;;;26.34;63.68;101129.63;5090543;28;20139;-78
2023/10/02 12:19:19;;;;;;;21.70;12.43;;;;;;;26.17;62.93;101112.72;5073108;28;20041;-80
2023/10/02 12:21:45;;;;;;;20.50;12.15;;;;;;;25.82;64.39;101129.94;5086305;28;20406;-80
2023/10/02 12:24:14;;;;;;;23.50;12.90;;;;;;;25.94;63.67;101116.44;5083410;28;20131;-82
2023/10/02 12:26:41;;;;;;;26.80;13.05;;;;;;;25.94;63.75;101111.09;5068717;28;20056;-82
2023/10/02 12:29:08;;;;;;;19.42;12.35;;;;;;;25.83;63.50;101103.94;5077651;28;20049;-80
2023/10/02 12:31:36;;;;;;;20.85;12.38;;;;;;;26.02;63.84;101108.78;5067992;28;20492;-80
2023/10/02 12:34:05;;;;;;;21.23;12.25;;;;;;;26.05;64.22;101104.78;5073850;28;20048;-75
2023/10/02 12:36:32;;;;;;;20.02;12.50;;;;;;;26.18;63.70;101098.25;5073536;28;20427;-78
2023/10/02 12:38:59;;;;;;;22.73;12.30;;;;;;;26.38;63.98;101098.56;5079198;28;20225;-79
2023/10/02 12:41:29;;;;;;;22.73;12.07;;;;;;;26.61;64.76;101103.66;5084895;28;20071;-79
2023/10/02 12:43:56;;;;;;;25.58;13.07;;;;;;;26.45;63.87;101083.09;5093329;28;20131;-79
2023/10/02 12:46:25;;;;;;;22.70;12.65;;;;;;;26.51;63.90;101081.25;5092798;28;20414;-79
2023/10/02 12:48:52;;;;;;;23.27;12.65;;;;;;;26.37;63.41;101070.13;5092683;28;20162;-78
2023/10/02 12:51:19;;;;;;;24.15;12.38;;;;;;;26.44;63.89;101078.78;5093148;28;20044;-77
2023/10/02 12:53:46;;;;;;;25.20;13.95;;;;;;;26.74;62.80;101075.63;5086661;28;20052;-78
2023/10/02 12:56:18;;;;;;;19.75;12.23;;;;;;;26.54;62.67;101062.78;5095325;28;20043;-78
2023/10/02 12:58:48;;;;;;;20.88;13.00;;;;;;;26.51;63.21;101060.59;5066606;28;20131;-78
2023/10/02 13:01:15;;;;;;;21.33;12.52;;;;;;;26.38;63.91;101059.13;5074479;28;20211;-77
2023/10/02 13:03:43;;;;;;;22.65;13.40;;;;;;;26.66;64.01;101063.47;5075945;28;20087;-79
2023/10/02 13:06:12;;;;;;;22.70;12.85;;;;;;;26.74;63.86;101060.34;5078462;28;20048;-77
2023/10/02 13:08:40;;;;;;;21.52;12.98;;;;;;;26.84;62.74;101053.44;5075704;28;20048;-80
2023/10/02 13:11:10;;;;;;;22.02;12.82;;;;;;;27.00;63.50;101041.81;5085975;28;20045;-80
2023/10/02 13:13:37;;;;;;;22.70;13.20;;;;;;;27.05;62.71;101048.03;5097758;28;20544;-80
2023/10/02 13:16:05;;;;;;;22.35;12.88;;;;;;;27.23;63.27;101048.72;5092444;28;20106;-78
2023/10/02 13:18:31;;;;;;;25.23;13.50;;;;;;;27.17;63.58;101047.88;5094956;28;20413;-80
2023/10/02 13:20:59;;;;;;;28.20;14.13;;;;;;;27.26;62.41;101040.16;5091882;28;20123;-78
2023/10/02 13:23:25;;;;;;;22.23;13.05;;;;;;;27.33;63.63;101046.94;5086691;28;20164;-80
2023/10/02 13:25:53;;;;;;;23.08;13.55;;;;;;;27.16;62.22;101040.06;5074295;28;20531;-80
2023/10/02 13:28:20;;;;;;;20.98;12.95;;;;;;;27.31;62.98;101037.50;5086006;28;20473;-81
2023/10/02 13:30:47;;;;;;;19.88;12.57;;;;;;;27.37;62.44;101026.53;5077115;28;20498;-81
2023/10/02 13:33:15;;;;;;;23.17;12.75;;;;;;;27.48;62.24;101027.41;5072355;28;20204;-80
2023/10/02 13:35:44;;;;;;;22.60;12.88;;;;;;;27.25;61.59;101022.41;5071933;28;20126;-80
2023/10/02 13:38:10;;;;;;;24.65;13.68;;;;;;;27.07;62.30;101032.47;5096478;28;20445;-81
2023/10/02 13:40:38;;;;;;;24.65;13.27;;;;;;;26.94;63.12;101019.44;5089878;28;20048;-78
2023/10/02 13:43:07;;;;;;;23.20;13.32;;;;;;;26.91;63.56;101021.84;5097745;28;20051;-81
2023/10/02 13:45:35;;;;;;;21.38;13.38;;;;;;;26.87;62.88;101018.84;5082703;28;20522;-82
2023/10/02 13:48:04;;;;;;;23.25;13.48;;;;;;;26.84;63.79;101015.88;5095040;28;20052;-81
2023/10/02 13:50:35;;;;;;;22.48;13.55;;;;;;;26.83;63.35;101003.50;5083443;28;20486;-81
2023/10/02 13:53:03;;;;;;;25.92;13.27;;;;;;;26.75;63.19;100994.03;5098996;28;20044;-81
2023/10/02 13:55:30;;;;;;;25.13;13.43;;;;;;;26.83;63.44;101003.50;5096144;28;20052;-82
2023/10/02 13:57:57;;;;;;;20.73;12.15;;;;;;;27.17;63.66;101010.25;5077502;28;20075;-82
2023/10/02 14:00:26;;;;;;;20.98;12.27;;;;;;;27.39;63.53;100994.84;5078572;28;20048;-81
2023/10/02 14:02:54;;;;;;;20.70;12.48;;;;;;;27.29;63.31;101000.16;5077060;28;20057;-81
2023/10/02 14:05:24;;;;;;;23.80;12.80;;;;;;;27.01;62.74;100990.50;5068815;28;20060;-80
2023/10/02 14:07:52;;;;;;;22.70;13.70;;;;;;;27.24;63.14;100996.63;5097005;28;20051;-80
2023/10/02 14:10:18;;;;;;;22.80;13.35;;;;;;;27.25;62.54;100984.81;5088742;28;20090;-79
2023/10/02 14:12:46;;;;;;;21.77;13.43;;;;;;;27.30;61.94;100982.97;5077241;28;20111;-82
2023/10/02 14:15:16;;;;;;;23.13;14.02;;;;;;;27.30;62.29;100979.47;5076760;28;20056;-80
2023/10/02 14:17:43;;;;;;;23.88;12.77;;;;;;;27.33;62.73;100973.56;5077119;28;20083;-79
2023/10/02 14:20:14;;;;;;;22.40;13.32;;;;;;;27.10;62.34;100966.69;5083816;28;20083;-80
2023/10/02 14:22:42;;;;;;;22.40;12.93;;;;;;;27.00;62.53;100953.97;5097897;28;20074;-81
2023/10/02 14:25:12;;;;;;;24.67;13.20;;;;;;;26.99;62.89;100946.19;5097350;28;20386;-80
2023/10/02 14:27:39;;;;;;;20.25;12.48;;;;;;;27.04;63.93;100954.28;5078378;28;20052;-79
2023/10/02 14:30:12;;;;;;;20.52;12.13;;;;;;;27.06;63.45;100949.47;5078255;28;20078;-81
2023/10/02 14:32:40;;;;;;;22.38;12.40;;;;;;;26.97;64.20;100946.44;5073680;28;20491;-80
2023/10/02 14:35:07;;;;;;;21.02;12.57;;;;;;;26.98;65.31;100949.94;5064793;28;20053;-80
2023/10/02 14:37:34;;;;;;;26.77;13.52;;;;;;;26.88;65.22;100937.22;5090937;28;20052;-79
2023/10/02 14:40:02;;;;;;;24.77;13.15;;;;;;;26.77;64.67;100941.69;5085776;28;20048;-77
2023/10/02 14:42:29;;;;;;;25.52;13.13;;;;;;;26.75;65.20;100937.66;5085627;28;20064;-79
2023/10/02 14:44:56;;;;;;;23.88;13.55;;;;;;;26.80;65.83;100948.44;5094199;28;20048;-79
2023/10/02 14:47:23;;;;;;;21.85;12.93;;;;;;;26.76;65.41;100936.59;5085038;28;20055;-80
2023/10/02 14:49:49;;;;;;;21.90;13.52;;;;;;;26.66;65.03;100934.63;5084586;28;20051;-78
2023/10/02 14:52:16;;;;;;;20.05;12.30;;;;;;;26.62;64.96;100938.88;5078864;28;20108;-80
2023/10/02 14:54:42;;;;;;;20.65;12.00;;;;;;;26.64;65.58;100944.81;5065858;28;20545;-80
2023/10/02 14:57:09;;;;;;;21.50;12.88;;;;;;;26.59;65.76;100939.38;5065455;28;20099;-81
2023/10/02 14:59:37;;;;;;;23.23;12.73;;;;;;;26.57;66.58;100946.88;5073040;28;20120;-80
2023/10/02 15:02:04;;;;;;;23.25;12.35;;;;;;;26.62;66.10;100938.88;5076570;28;20127;-80
2023/10/02 15:04:30;;;;;;;20.92;12.40;;;;;;;26.56;66.81;100939.09;5089685;28;20118;-80
2023/10/02 15:06:57;;;;;;;21.65;12.98;;;;;;;26.51;67.18;100939.84;5078967;28;20481;-80
2023/10/02 15:09:23;;;;;;;20.02;11.98;;;;;;;26.49;67.19;100931.22;5068325;28;20072;-80
2023/10/02 15:14:18;;;;;;;21.10;12.35;;;;;;;26.41;67.15;100910.25;5084551;28;20052;-86
2023/10/02 15:51:36;;;;;;;21.85;12.43;;;;;;;26.27;67.88;100868.75;5044325;28;20049;-87
2023/10/02 16:00:24;;;;;;;21.27;12.45;;;;;;;26.16;67.65;100881.25;5150961;22;20047;-78
2023/10/02 16:02:52;;;;;;;21.95;12.88;;;;;;;26.12;68.01;100886.31;5112816;27;20072;-78
2023/10/02 16:05:35;;;;;;;22.42;13.15;;;;;;;26.03;68.27;100890.50;5120932;27;20043;-80
2023/10/02 16:08:02;;;;;;;23.48;13.23;;;;;;;25.97;68.51;100882.69;5116285;27;20138;-80
2023/10/02 16:10:29;;;;;;;26.33;12.45;;;;;;;25.92;68.61;100879.94;5109624;27;20055;-80
2023/10/02 16:12:57;;;;;;;21.52;14.07;;;;;;;25.90;68.28;100871.34;5108458;28;20043;-80
2023/10/02 16:15:27;;;;;;;22.00;13.05;;;;;;;25.81;67.91;100860.25;5103688;28;20052;-80
2023/10/02 16:17:56;;;;;;;22.80;13.85;;;;;;;25.77;68.48;100872.53;5112344;27;20047;-80
2023/10/02 16:20:26;;;;;;;25.08;13.18;;;;;;;25.70;68.20;100861.19;5104950;28;20130;-80
2023/10/02 16:22:57;;;;;;;24.60;13.93;;;;;;;25.59;68.02;100862.91;5097190;27;20048;-79
2023/10/02 16:25:24;;;;;;;25.77;15.75;;;;;;;25.50;68.26;100855.56;5114774;27;20043;-79
2023/10/02 16:27:52;;;;;;;23.02;13.38;;;;;;;25.40;67.82;100846.34;5106094;28;20040;-79
2023/10/02 16:30:20;;;;;;;24.60;13.40;;;;;;;25.32;67.93;100837.94;5101134;28;20483;-79
2023/10/02 16:32:48;;;;;;;26.38;13.30;;;;;;;25.18;68.52;100848.19;5112401;28;20109;-79
2023/10/02 16:35:17;;;;;;;23.58;13.02;;;;;;;25.15;68.59;100843.31;5107889;27;20063;-80
2023/10/02 16:37:44;;;;;;;22.45;13.48;;;;;;;25.03;69.18;100851.47;5110975;27;20105;-80
2023/10/02 16:40:16;;;;;;;22.42;13.10;;;;;;;24.90;69.62;100848.28;5101998;28;20103;-79
2023/10/02 16:42:43;;;;;;;24.35;12.75;;;;;;;24.86;69.62;100841.81;5113552;28;20073;-82
2023/10/02 16:45:15;;;;;;;24.85;13.07;;;;;;;24.73;69.54;100832.25;5107537;28;20047;-80
2023/10/02 16:47:42;;;;;;;21.48;12.60;;;;;;;24.68;69.57;100837.50;5105330;28;20429;-79
2023/10/02 16:50:10;;;;;;;23.73;13.48;;;;;;;24.56;69.67;100832.28;5102529;27;20066;-81
2023/10/02 16:52:43;;;;;;;28.25;13.55;;;;;;;24.51;69.80;100840.22;5114289;27;20052;-80
2023/10/02 16:55:12;;;;;;;;;;;;;;;24.39;70.27;100844.81;5118479;27;20039;-79
2023/10/02 16:57:43;;;;;;;19.02;11.95;;;;;;;24.28;70.56;100833.13;5114186;27;19920;-79
2023/10/02 17:00:13;;;;;;;21.67;12.32;;;;;;;24.17;70.88;100832.09;5116181;27;20063;-80
2023/10/02 17:02:40;;;;;;;23.05;12.55;;;;;;;24.07;71.27;100826.59;5108811;27;20048;-78
2023/10/02 17:05:10;;;;;;;23.23;12.63;;;;;;;23.96;71.36;100824.78;5106074;28;20052;-80
2023/10/02 17:07:37;;;;;;;22.40;12.55;;;;;;;23.87;71.67;100820.06;5104777;28;20051;-80